Time;durP1;ratioP1;P1;durP2;ratioP2;P2;SDS_P1;SDS_P2;PMS_P1;PMS_P2;Temp;Humidity;BMP_temperature;BMP_pressure;BME280_temperature;BME280_humidity;BME280_pressure;Samples;Min_cycle;Max_cycle;Signal;HPM_P1;HPM_P2
2021/05/27 00:00:34;;;;;;;5.82;4.10;;;9.20;99.90;;;;;;5119798;28;20028;-62
2021/05/27 00:03:02;;;;;;;5.60;4.35;;;9.20;99.90;;;;;;5119793;28;20015;-63
2021/05/27 00:05:30;;;;;;;7.00;3.38;;;9.10;99.90;;;;;;5119857;28;20024;-62
2021/05/27 00:07:58;;;;;;;4.78;3.50;;;9.20;99.90;;;;;;5119937;28;20326;-62
2021/05/27 00:10:28;;;;;;;6.60;4.03;;;9.20;99.90;;;;;;5101557;28;20035;-62
2021/05/27 00:12:56;;;;;;;6.20;3.78;;;9.10;99.90;;;;;;5119759;28;20081;-62
2021/05/27 00:15:26;;;;;;;9.45;5.53;;;9.10;99.90;;;;;;5119586;28;20424;-63
2021/05/27 00:17:54;;;;;;;5.82;4.07;;;9.10;99.90;;;;;;5120909;28;20023;-62
2021/05/27 00:20:22;;;;;;;7.95;4.32;;;9.10;99.90;;;;;;5120285;28;20327;-62
2021/05/27 00:22:50;;;;;;;6.32;4.07;;;9.10;99.90;;;;;;5120311;28;20438;-62
2021/05/27 00:25:18;;;;;;;8.00;4.22;;;9.10;99.90;;;;;;5120236;28;20035;-62
2021/05/27 00:27:48;;;;;;;7.82;4.25;;;9.10;99.90;;;;;;5120981;28;20019;-62
2021/05/27 00:30:17;;;;;;;6.03;4.00;;;9.10;99.90;;;;;;5120116;28;20023;-62
2021/05/27 00:32:45;;;;;;;13.95;4.30;;;9.10;99.90;;;;;;5120089;28;20031;-62
2021/05/27 00:35:14;;;;;;;9.20;4.60;;;9.10;99.90;;;;;;5119770;28;20106;-62
2021/05/27 00:37:42;;;;;;;7.63;4.07;;;9.10;99.90;;;;;;5101222;28;20104;-62
2021/05/27 00:40:13;;;;;;;7.32;3.97;;;9.10;99.90;;;;;;5119045;28;20232;-62
2021/05/27 00:42:41;;;;;;;6.95;4.00;;;9.10;99.90;;;;;;5101003;28;20300;-62
2021/05/27 00:45:15;;;;;;;6.55;4.60;;;9.10;99.90;;;;;;5119177;28;20108;-62
2021/05/27 00:47:43;;;;;;;8.07;4.18;;;9.10;99.90;;;;;;5119113;28;20024;-63
2021/05/27 00:50:21;;;;;;;8.40;3.95;;;9.10;99.90;;;;;;5119392;28;20084;-62
2021/05/27 00:53:04;;;;;;;6.93;4.45;;;9.10;99.90;;;;;;5100737;28;20035;-62
2021/05/27 00:55:32;;;;;;;6.13;4.10;;;9.10;99.90;;;;;;5097122;28;20158;-62
2021/05/27 00:58:00;;;;;;;8.63;4.88;;;9.10;99.90;;;;;;5098591;28;20114;-62
2021/05/27 01:00:28;;;;;;;7.75;5.13;;;9.10;99.90;;;;;;5098154;28;20028;-62
2021/05/27 01:02:56;;;;;;;6.55;4.80;;;9.10;99.90;;;;;;5099230;28;20038;-62
2021/05/27 01:05:23;;;;;;;6.95;5.13;;;9.10;99.90;;;;;;5099501;28;20024;-62
2021/05/27 01:07:51;;;;;;;8.48;4.65;;;9.10;99.90;;;;;;5099488;28;20022;-62
2021/05/27 01:10:20;;;;;;;6.78;5.30;;;9.10;99.90;;;;;;5098940;28;20028;-62
2021/05/27 01:12:47;;;;;;;6.78;4.88;;;9.10;99.90;;;;;;5099324;28;20107;-62
2021/05/27 01:18:13;;;;;;;8.00;5.03;;;9.10;99.90;;;;;;5098029;28;20024;-62
2021/05/27 01:20:50;;;;;;;7.47;4.95;;;9.10;99.90;;;;;;5097759;28;20020;-62
2021/05/27 01:23:19;;;;;;;7.75;5.72;;;9.10;99.90;;;;;;5097873;28;20024;-62
2021/05/27 01:25:49;;;;;;;6.88;4.80;;;9.10;99.90;;;;;;5097858;28;20424;-62
2021/05/27 01:28:16;;;;;;;8.20;4.90;;;9.00;99.90;;;;;;5098097;28;20024;-62
2021/05/27 01:30:45;;;;;;;5.65;4.28;;;9.00;99.90;;;;;;5097679;28;20076;-62
2021/05/27 01:33:18;;;;;;;5.40;3.83;;;9.00;99.90;;;;;;5097809;28;20028;-62
2021/05/27 01:35:46;;;;;;;9.98;4.38;;;9.00;99.90;;;;;;5097781;28;20336;-62
2021/05/27 01:38:20;;;;;;;9.90;3.53;;;8.90;99.90;;;;;;5098927;28;20028;-62
2021/05/27 01:40:48;;;;;;;5.25;3.03;;;9.00;99.90;;;;;;5098313;28;20024;-62
2021/05/27 01:43:17;;;;;;;8.52;2.72;;;8.90;99.90;;;;;;5098797;28;20024;-62
2021/05/27 01:45:44;;;;;;;4.95;2.58;;;8.90;99.90;;;;;;5098356;28;20016;-63
2021/05/27 01:48:12;;;;;;;6.68;2.70;;;8.80;99.90;;;;;;5097260;28;20103;-62
2021/05/27 01:50:44;;;;;;;3.53;2.10;;;8.80;99.90;;;;;;5097107;28;20024;-62
2021/05/27 01:53:13;;;;;;;4.88;3.05;;;8.80;99.90;;;;;;5098435;28;20109;-62
2021/05/27 01:55:49;;;;;;;5.65;2.40;;;8.80;99.90;;;;;;5106982;28;20104;-62
2021/05/27 01:58:18;;;;;;;3.58;2.40;;;8.70;99.90;;;;;;5117826;28;20427;-62
2021/05/27 02:00:46;;;;;;;3.80;2.28;;;8.70;99.90;;;;;;5117375;28;20035;-62
2021/05/27 02:03:14;;;;;;;7.22;2.00;;;8.70;99.90;;;;;;5117614;28;20034;-62
2021/05/27 02:05:41;;;;;;;2.78;1.75;;;8.70;99.90;;;;;;5117445;28;20028;-62
2021/05/27 02:08:10;;;;;;;3.10;1.75;;;8.60;99.90;;;;;;5118002;28;20012;-62
2021/05/27 02:10:38;;;;;;;2.53;1.70;;;8.60;99.90;;;;;;5117215;28;20103;-62
2021/05/27 02:13:06;;;;;;;2.53;1.23;;;8.60;99.90;;;;;;5117460;28;20423;-62
2021/05/27 02:15:34;;;;;;;2.22;1.20;;;8.60;99.90;;;;;;5117221;28;20031;-63
2021/05/27 02:18:02;;;;;;;2.03;0.98;;;8.60;99.90;;;;;;5118006;28;20019;-62
2021/05/27 02:20:29;;;;;;;2.58;1.40;;;8.50;99.90;;;;;;5117946;28;20023;-62
2021/05/27 02:22:57;;;;;;;2.38;1.20;;;8.50;99.90;;;;;;5118472;28;20015;-62
2021/05/27 02:25:25;;;;;;;1.60;0.80;;;8.50;99.90;;;;;;5118149;28;20076;-62
2021/05/27 02:27:55;;;;;;;2.17;0.80;;;8.40;99.90;;;;;;5118597;28;20016;-62
2021/05/27 02:30:24;;;;;;;1.58;0.60;;;8.40;99.90;;;;;;5083692;28;20159;-62
2021/05/27 02:32:52;;;;;;;1.20;0.60;;;8.40;99.90;;;;;;5117951;28;20031;-62
2021/05/27 02:35:19;;;;;;;2.53;0.70;;;8.40;99.90;;;;;;5117951;28;20123;-62
2021/05/27 02:37:46;;;;;;;2.28;0.88;;;8.30;99.90;;;;;;5099741;28;20019;-62
2021/05/27 02:40:14;;;;;;;1.23;0.65;;;8.30;99.90;;;;;;5117499;28;20138;-62
2021/05/27 02:42:42;;;;;;;0.68;0.40;;;8.30;99.90;;;;;;5099081;28;20102;-62
2021/05/27 02:45:10;;;;;;;4.30;0.93;;;8.30;99.90;;;;;;5116940;28;20426;-62
2021/05/27 02:47:41;;;;;;;2.78;0.70;;;8.20;99.90;;;;;;5117270;28;20102;-62
2021/05/27 02:50:09;;;;;;;2.20;0.60;;;8.20;99.90;;;;;;5116824;28;20028;-63
2021/05/27 02:52:36;;;;;;;2.55;0.50;;;8.20;99.90;;;;;;5117631;28;20031;-62
2021/05/27 02:55:04;;;;;;;2.03;0.60;;;8.20;99.90;;;;;;5116466;28;20092;-62
2021/05/27 02:57:32;;;;;;;0.70;0.40;;;8.20;99.90;;;;;;5116305;28;20323;-62
2021/05/27 03:00:00;;;;;;;0.75;0.43;;;8.20;99.90;;;;;;5116388;28;20409;-62
2021/05/27 03:02:27;;;;;;;1.55;0.57;;;8.20;99.90;;;;;;5117058;28;20043;-62
2021/05/27 03:04:55;;;;;;;0.75;0.38;;;8.20;99.90;;;;;;5116789;28;20047;-62
2021/05/27 03:07:23;;;;;;;1.38;0.50;;;8.20;99.90;;;;;;5117023;28;20019;-62
2021/05/27 03:09:51;;;;;;;1.95;0.57;;;8.20;99.90;;;;;;5098706;28;20027;-62
2021/05/27 03:12:19;;;;;;;1.13;0.60;;;8.20;99.90;;;;;;5082086;28;20024;-62
2021/05/27 03:14:47;;;;;;;1.95;0.63;;;8.20;99.90;;;;;;5116929;28;20043;-62
2021/05/27 03:17:14;;;;;;;1.83;0.70;;;8.20;99.90;;;;;;5116742;28;20103;-62
2021/05/27 03:19:42;;;;;;;3.53;0.60;;;8.20;99.90;;;;;;5115992;28;20024;-62
2021/05/27 03:22:11;;;;;;;2.30;0.88;;;8.20;99.90;;;;;;5116123;28;20050;-62
2021/05/27 03:24:39;;;;;;;5.25;1.17;;;8.20;99.90;;;;;;5119240;28;20043;-62
2021/05/27 03:27:07;;;;;;;4.22;0.90;;;8.30;99.90;;;;;;5119418;28;20028;-62
2021/05/27 03:29:35;;;;;;;1.63;0.70;;;8.20;99.90;;;;;;5119107;28;20028;-62
2021/05/27 03:32:02;;;;;;;1.20;0.80;;;8.30;99.90;;;;;;5119151;28;20020;-62
2021/05/27 03:34:31;;;;;;;2.35;1.25;;;8.30;99.90;;;;;;5119203;28;20160;-62
2021/05/27 03:36:58;;;;;;;1.48;0.88;;;8.30;99.90;;;;;;5119013;28;20027;-62
2021/05/27 03:39:27;;;;;;;2.78;1.20;;;8.30;99.90;;;;;;5119321;28;20319;-62
2021/05/27 03:41:54;;;;;;;1.90;1.10;;;8.30;99.90;;;;;;5120079;28;20311;-62
2021/05/27 03:44:22;;;;;;;3.25;1.40;;;8.30;99.90;;;;;;5101722;28;20030;-62
2021/05/27 03:46:49;;;;;;;3.28;1.63;;;8.30;99.90;;;;;;5101855;28;20024;-62
2021/05/27 03:49:17;;;;;;;3.95;1.48;;;8.40;99.90;;;;;;5101686;28;20035;-62
2021/05/27 03:51:45;;;;;;;3.90;1.20;;;8.40;99.90;;;;;;5102438;28;20055;-62
2021/05/27 03:54:12;;;;;;;2.38;1.30;;;8.40;99.90;;;;;;5119598;28;20027;-62
2021/05/27 03:56:40;;;;;;;2.30;1.40;;;8.40;99.90;;;;;;5023632;28;2737589;-63
2021/05/27 04:01:54;;;;;;;2.70;1.55;;;8.50;99.90;;;;;;5105201;28;20041;-63
2021/05/27 04:07:10;;;;;;;2.75;1.13;;;8.60;99.90;;;;;;5119850;28;20076;-63
2021/05/27 04:09:42;;;;;;;1.70;0.95;;;8.60;99.90;;;;;;5119572;28;20036;-62
2021/05/27 04:17:42;;;;;;;4.05;1.30;;;8.70;99.90;;;;;;5104606;28;20063;-62
2021/05/27 04:20:11;;;;;;;1.85;1.00;;;8.70;99.90;;;;;;5119681;28;20428;-62
2021/05/27 04:22:45;;;;;;;2.40;1.40;;;8.70;99.90;;;;;;5102206;28;20423;-62
2021/05/27 04:25:14;;;;;;;2.05;1.00;;;8.80;99.90;;;;;;5120108;28;20045;-62
2021/05/27 04:27:42;;;;;;;2.22;1.45;;;8.80;99.90;;;;;;5120213;28;20024;-62
2021/05/27 04:30:15;;;;;;;2.58;1.10;;;8.80;99.90;;;;;;5120220;28;20027;-62
2021/05/27 04:32:56;;;;;;;2.58;1.27;;;8.80;99.90;;;;;;5120331;28;20020;-62
2021/05/27 04:35:38;;;;;;;1.75;1.13;;;8.80;99.90;;;;;;5120202;28;20331;-62
2021/05/27 04:41:15;;;;;;;2.67;1.35;;;8.90;99.90;;;;;;5102170;28;20474;-62
2021/05/27 04:43:46;;;;;;;2.47;1.00;;;8.90;99.90;;;;;;5100908;28;20024;-62
2021/05/27 04:46:14;;;;;;;3.42;1.20;;;8.90;99.90;;;;;;5118799;28;20055;-62
2021/05/27 04:48:41;;;;;;;1.95;1.27;;;8.90;99.90;;;;;;5119036;28;20023;-62
2021/05/27 04:51:09;;;;;;;1.98;1.15;;;8.90;99.90;;;;;;5119134;28;20019;-62
2021/05/27 04:53:36;;;;;;;1.77;1.20;;;8.90;99.90;;;;;;5101367;28;20031;-62
2021/05/27 04:56:05;;;;;;;1.98;1.10;;;8.90;99.90;;;;;;5118433;28;20050;-62
2021/05/27 04:58:33;;;;;;;2.22;1.00;;;9.00;99.90;;;;;;5119202;28;20023;-63
2021/05/27 05:01:02;;;;;;;2.25;1.08;;;9.00;99.90;;;;;;5118936;28;20031;-63
2021/05/27 05:03:29;;;;;;;2.30;1.40;;;9.00;99.90;;;;;;5119448;28;20062;-62
2021/05/27 05:05:56;;;;;;;3.42;1.40;;;9.00;99.90;;;;;;5101472;28;20043;-62
2021/05/27 05:08:24;;;;;;;5.20;1.50;;;9.00;99.90;;;;;;5101393;28;20019;-62
2021/05/27 05:10:51;;;;;;;2.30;1.20;;;9.00;99.90;;;;;;5119931;28;20472;-62
2021/05/27 05:13:20;;;;;;;5.85;1.33;;;9.10;99.90;;;;;;5120028;28;20031;-62
2021/05/27 05:15:49;;;;;;;2.45;1.45;;;9.10;99.90;;;;;;5119287;28;20032;-62
2021/05/27 05:18:17;;;;;;;4.22;1.05;;;9.20;99.90;;;;;;5119908;28;20027;-62
2021/05/27 05:20:50;;;;;;;2.47;1.20;;;9.20;99.90;;;;;;5119835;28;20360;-62
2021/05/27 05:23:19;;;;;;;2.38;1.20;;;9.30;99.90;;;;;;5119257;28;20027;-62
2021/05/27 05:25:47;;;;;;;2.55;1.35;;;9.30;99.90;;;;;;5119502;28;20165;-62
2021/05/27 05:28:16;;;;;;;2.80;1.30;;;9.30;99.90;;;;;;5118098;28;20047;-62
2021/05/27 05:30:45;;;;;;;2.30;1.23;;;9.30;99.90;;;;;;5118239;28;20030;-62
2021/05/27 05:33:13;;;;;;;3.42;1.17;;;9.30;99.90;;;;;;5118078;28;20059;-62
2021/05/27 05:35:41;;;;;;;1.50;0.95;;;9.30;99.90;;;;;;5118767;28;20327;-62
2021/05/27 05:38:09;;;;;;;2.67;1.40;;;9.30;99.90;;;;;;5100223;28;20572;-62
2021/05/27 05:40:37;;;;;;;2.72;1.95;;;9.20;99.90;;;;;;5117813;28;20059;-62
2021/05/27 05:43:06;;;;;;;2.67;1.23;;;9.30;99.90;;;;;;5118910;28;20099;-62
2021/05/27 05:45:34;;;;;;;2.65;1.40;;;9.30;99.90;;;;;;5118259;28;20024;-62
2021/05/27 05:48:02;;;;;;;3.45;1.40;;;9.30;99.90;;;;;;5100655;28;20027;-62
2021/05/27 05:50:47;;;;;;;2.22;1.23;;;9.30;99.90;;;;;;5118582;28;20096;-62
2021/05/27 05:53:20;;;;;;;2.22;1.50;;;9.30;99.90;;;;;;5119061;28;20030;-62
2021/05/27 05:55:49;;;;;;;2.15;1.23;;;9.30;99.90;;;;;;5118320;28;20047;-62
2021/05/27 05:58:17;;;;;;;2.72;1.38;;;9.30;99.90;;;;;;5118853;28;20019;-62
2021/05/27 06:00:45;;;;;;;2.15;1.23;;;9.30;99.90;;;;;;5100590;28;20019;-62
2021/05/27 06:03:12;;;;;;;1.77;1.23;;;9.30;99.90;;;;;;5101397;28;20020;-62
2021/05/27 06:05:40;;;;;;;2.25;1.27;;;9.30;99.90;;;;;;5117320;28;20080;-62
2021/05/27 06:08:09;;;;;;;1.92;1.13;;;9.30;99.90;;;;;;5117508;28;20411;-62
2021/05/27 06:10:36;;;;;;;2.58;1.67;;;9.30;99.90;;;;;;5117190;28;20419;-62
2021/05/27 06:13:04;;;;;;;2.08;1.25;;;9.30;99.90;;;;;;5118970;28;20015;-62
2021/05/27 06:15:32;;;;;;;3.25;1.33;;;9.40;99.90;;;;;;5099354;28;20023;-64
2021/05/27 06:18:01;;;;;;;4.43;1.50;;;9.40;99.90;;;;;;5117781;28;20107;-64
2021/05/27 06:20:30;;;;;;;3.45;1.70;;;9.40;99.90;;;;;;5116970;28;20024;-65
2021/05/27 06:22:59;;;;;;;2.13;1.20;;;9.40;99.90;;;;;;5117269;28;20438;-66
2021/05/27 06:25:27;;;;;;;2.60;1.50;;;9.40;99.90;;;;;;5117141;28;20051;-67
2021/05/27 06:27:56;;;;;;;2.70;1.63;;;9.40;99.90;;;;;;5117747;28;20319;-64
2021/05/27 06:30:28;;;;;;;3.53;1.83;;;9.40;99.90;;;;;;5117831;28;20035;-64
2021/05/27 06:32:58;;;;;;;3.28;1.70;;;9.40;99.90;;;;;;5118301;28;20036;-64
2021/05/27 06:35:26;;;;;;;2.40;1.50;;;9.40;99.90;;;;;;5117778;28;20098;-64
2021/05/27 06:37:54;;;;;;;3.53;1.92;;;9.40;99.90;;;;;;5118004;28;20028;-64
2021/05/27 06:40:25;;;;;;;2.70;1.70;;;9.40;99.90;;;;;;5099716;28;20100;-63
2021/05/27 06:42:53;;;;;;;2.67;1.60;;;9.40;99.90;;;;;;5118032;28;20376;-63
2021/05/27 06:45:22;;;;;;;3.10;1.55;;;9.40;99.90;;;;;;5117691;28;20331;-63
2021/05/27 06:47:51;;;;;;;4.28;1.80;;;9.40;99.90;;;;;;5116953;28;20050;-63
2021/05/27 06:50:35;;;;;;;3.38;1.95;;;9.40;99.90;;;;;;5116841;28;20108;-63
2021/05/27 06:53:08;;;;;;;4.72;2.15;;;9.40;99.90;;;;;;5117254;28;20434;-62
2021/05/27 06:55:37;;;;;;;4.95;2.83;;;9.40;99.90;;;;;;5116573;28;20443;-64
2021/05/27 06:58:06;;;;;;;3.05;2.05;;;9.30;99.90;;;;;;5118636;28;20028;-63
2021/05/27 07:00:34;;;;;;;3.20;1.73;;;9.30;99.90;;;;;;5120831;28;20019;-63
2021/05/27 07:03:03;;;;;;;3.10;2.08;;;9.30;99.90;;;;;;5086088;28;20076;-63
2021/05/27 07:05:31;;;;;;;5.10;2.33;;;9.30;99.90;;;;;;5120838;28;20027;-63
2021/05/27 07:08:01;;;;;;;5.10;2.05;;;9.30;99.90;;;;;;5103741;28;20050;-62
2021/05/27 07:10:30;;;;;;;4.05;1.88;;;9.30;99.90;;;;;;5121723;28;20023;-65
2021/05/27 07:13:04;;;;;;;3.20;1.92;;;9.30;99.90;;;;;;5121861;28;20103;-63
2021/05/27 07:15:32;;;;;;;3.03;1.50;;;9.30;99.90;;;;;;5122010;28;20031;-62
2021/05/27 07:18:00;;;;;;;3.75;1.80;;;9.30;99.90;;;;;;5104561;28;20055;-63
2021/05/27 07:20:28;;;;;;;3.38;1.75;;;9.30;99.90;;;;;;5120792;28;20065;-63
2021/05/27 07:22:56;;;;;;;3.80;2.10;;;9.30;99.90;;;;;;5120934;28;20042;-63
2021/05/27 07:25:25;;;;;;;2.95;2.17;;;9.30;99.90;;;;;;5122858;28;20099;-63
2021/05/27 07:27:54;;;;;;;4.50;2.30;;;9.30;99.90;;;;;;5120439;28;20023;-63
2021/05/27 07:30:25;;;;;;;3.42;1.67;;;9.30;99.90;;;;;;5120670;28;20024;-63
2021/05/27 07:32:54;;;;;;;3.28;1.63;;;9.40;99.90;;;;;;5121026;28;20073;-63
2021/05/27 07:35:23;;;;;;;2.85;1.77;;;9.40;99.90;;;;;;5121864;28;20421;-63
2021/05/27 07:37:51;;;;;;;3.50;2.20;;;9.40;99.90;;;;;;5121694;28;20072;-63
2021/05/27 07:40:20;;;;;;;2.35;1.42;;;9.50;99.90;;;;;;5122018;28;20046;-63
2021/05/27 07:42:47;;;;;;;4.22;1.80;;;9.50;99.90;;;;;;5121190;28;20110;-63
2021/05/27 07:45:16;;;;;;;3.42;1.50;;;9.60;99.90;;;;;;5103794;28;20031;-63
2021/05/27 07:47:45;;;;;;;2.17;1.27;;;9.70;99.90;;;;;;5121245;28;20031;-62
2021/05/27 07:50:14;;;;;;;2.40;1.02;;;9.70;99.90;;;;;;5121046;28;20019;-62
2021/05/27 07:52:41;;;;;;;2.85;0.98;;;9.80;99.90;;;;;;5121000;28;20024;-63
2021/05/27 07:55:09;;;;;;;2.55;1.13;;;9.80;99.90;;;;;;5119879;28;20176;-63
2021/05/27 07:57:37;;;;;;;1.92;0.80;;;9.80;99.90;;;;;;5120487;28;20315;-63
2021/05/27 08:00:09;;;;;;;2.30;1.10;;;9.90;99.90;;;;;;5119880;28;20023;-63
2021/05/27 08:02:37;;;;;;;2.45;0.95;;;9.90;99.90;;;;;;5120161;28;20519;-63
2021/05/27 08:05:05;;;;;;;2.15;1.08;;;10.00;99.90;;;;;;5102068;28;20019;-62
2021/05/27 08:07:33;;;;;;;2.67;1.23;;;10.00;99.90;;;;;;5120493;28;20391;-63
2021/05/27 08:10:01;;;;;;;2.63;1.48;;;10.10;99.90;;;;;;5119496;28;20034;-63
2021/05/27 08:12:29;;;;;;;4.22;1.02;;;10.20;99.90;;;;;;5120264;28;20130;-63
2021/05/27 08:14:57;;;;;;;2.42;1.35;;;10.20;99.90;;;;;;5119742;28;20107;-63
2021/05/27 08:17:25;;;;;;;2.70;1.30;;;10.20;99.90;;;;;;5120785;28;20438;-63
2021/05/27 08:19:52;;;;;;;1.65;0.95;;;10.20;99.90;;;;;;5120631;28;20027;-63
2021/05/27 08:22:21;;;;;;;2.88;0.93;;;10.30;99.90;;;;;;5102514;28;20031;-63
2021/05/27 08:24:48;;;;;;;2.67;1.10;;;10.30;99.90;;;;;;5102675;28;20032;-63
2021/05/27 08:27:16;;;;;;;4.93;1.33;;;10.30;99.90;;;;;;5120375;28;20031;-63
2021/05/27 08:29:43;;;;;;;2.83;1.30;;;10.30;99.90;;;;;;5102999;28;20027;-63
2021/05/27 08:32:11;;;;;;;2.95;1.67;;;10.30;99.90;;;;;;5085429;28;20115;-63
2021/05/27 08:34:39;;;;;;;3.13;1.58;;;10.40;99.90;;;;;;5119631;28;20042;-63
2021/05/27 08:37:07;;;;;;;4.03;1.80;;;10.40;99.90;;;;;;5101345;28;20023;-63
2021/05/27 08:39:34;;;;;;;3.65;1.67;;;10.50;99.90;;;;;;5101041;28;20055;-63
2021/05/27 08:42:03;;;;;;;4.22;1.85;;;10.70;99.90;;;;;;5101819;28;20016;-63
2021/05/27 08:44:30;;;;;;;4.25;1.50;;;10.80;99.90;;;;;;5119106;28;20020;-63
2021/05/27 08:46:57;;;;;;;2.72;1.60;;;10.80;99.90;;;;;;5119194;28;20104;-63
2021/05/27 08:49:25;;;;;;;3.47;1.92;;;10.90;99.90;;;;;;5119025;28;20069;-63
2021/05/27 08:51:53;;;;;;;2.15;1.48;;;11.00;99.90;;;;;;5119008;28;20364;-63
2021/05/27 08:54:21;;;;;;;3.50;1.60;;;11.10;99.90;;;;;;5100791;28;20331;-63
2021/05/27 08:56:49;;;;;;;3.70;1.70;;;11.10;99.90;;;;;;5119644;28;20193;-63
2021/05/27 08:59:18;;;;;;;4.10;1.20;;;11.20;99.90;;;;;;5119608;28;20401;-63
2021/05/27 09:02:03;;;;;;;3.13;1.80;;;11.20;99.90;;;;;;5120502;28;20411;-63
2021/05/27 09:04:31;;;;;;;3.80;1.75;;;11.20;99.90;;;;;;5120458;28;20385;-63
2021/05/27 09:07:01;;;;;;;3.40;1.02;;;11.20;99.90;;;;;;5119641;28;20072;-63
2021/05/27 09:09:51;;;;;;;2.40;1.20;;;11.20;99.90;;;;;;5119460;28;20024;-63
2021/05/27 09:12:31;;;;;;;2.22;1.20;;;11.20;99.90;;;;;;5119416;28;20030;-63
2021/05/27 09:15:02;;;;;;;2.42;1.40;;;11.10;99.90;;;;;;5119456;28;20024;-63
2021/05/27 09:17:52;;;;;;;2.20;1.17;;;11.20;99.90;;;;;;5119044;28;20197;-63
2021/05/27 09:20:25;;;;;;;1.90;1.02;;;11.20;99.90;;;;;;5118000;28;20023;-63
2021/05/27 09:23:20;;;;;;;3.33;1.00;;;11.20;99.90;;;;;;5119272;28;20028;-63
2021/05/27 09:25:50;;;;;;;2.50;1.10;;;11.00;99.90;;;;;;5118399;28;20068;-62
2021/05/27 09:28:29;;;;;;;2.83;1.08;;;11.00;99.90;;;;;;5118427;28;20016;-63
2021/05/27 09:31:01;;;;;;;3.85;1.65;;;10.90;99.90;;;;;;5099860;28;20019;-63
2021/05/27 09:33:36;;;;;;;3.65;1.10;;;10.90;99.90;;;;;;5118121;28;20031;-65
2021/05/27 09:36:11;;;;;;;5.10;1.30;;;10.90;99.90;;;;;;5118432;28;20027;-63
2021/05/27 09:38:42;;;;;;;1.92;1.20;;;11.00;99.90;;;;;;5118258;28;20031;-65
2021/05/27 09:41:23;;;;;;;250.88;63.83;;;11.10;99.90;;;;;;5117748;28;20020;-66
2021/05/27 09:43:56;;;;;;;3.08;1.05;;;11.10;99.90;;;;;;5117996;28;20045;-64
2021/05/27 09:46:24;;;;;;;1.67;0.80;;;11.10;99.90;;;;;;5099609;28;20053;-64
2021/05/27 09:49:05;;;;;;;2.42;1.10;;;11.10;99.90;;;;;;5118604;28;20051;-65
2021/05/27 09:51:33;;;;;;;2.22;1.25;;;11.10;99.90;;;;;;5118718;28;20102;-66
2021/05/27 09:54:01;;;;;;;5.65;1.20;;;11.10;99.90;;;;;;5100793;28;20026;-65
2021/05/27 09:56:44;;;;;;;2.17;0.85;;;11.00;99.90;;;;;;5118195;28;20071;-65
2021/05/27 09:59:19;;;;;;;2.22;1.00;;;10.90;99.90;;;;;;5118552;28;20046;-65
2021/05/27 10:02:15;;;;;;;1.55;0.85;;;10.80;99.90;;;;;;5119166;28;20011;-64
2021/05/27 10:04:59;;;;;;;1.70;1.00;;;10.90;99.90;;;;;;5118444;28;20065;-64
2021/05/27 10:07:36;;;;;;;1.05;0.70;;;10.90;99.90;;;;;;5117401;28;20028;-65
2021/05/27 10:10:06;;;;;;;1.42;0.75;;;11.00;99.90;;;;;;5117613;28;20016;-66
2021/05/27 10:12:43;;;;;;;1.20;0.70;;;11.10;99.90;;;;;;5099310;28;20092;-64
2021/05/27 10:15:15;;;;;;;2.10;0.98;;;11.10;99.90;;;;;;5117802;28;20019;-64
2021/05/27 10:17:47;;;;;;;2.13;1.00;;;11.10;99.90;;;;;;5083042;28;20020;-64
2021/05/27 10:20:21;;;;;;;1.73;1.20;;;11.00;99.90;;;;;;5098984;28;20442;-64
2021/05/27 10:22:49;;;;;;;1.88;0.73;;;10.90;99.90;;;;;;5117061;28;20079;-64
2021/05/27 10:25:18;;;;;;;3.30;1.20;;;10.90;99.90;;;;;;5117088;28;20415;-64
2021/05/27 10:27:51;;;;;;;2.47;1.17;;;11.10;99.90;;;;;;5118091;28;20023;-65
2021/05/27 10:30:22;;;;;;;1.75;1.00;;;11.20;99.90;;;;;;5117807;28;20223;-64
2021/05/27 10:32:53;;;;;;;1.90;1.13;;;11.20;99.90;;;;;;5118111;28;20030;-64
2021/05/27 10:35:22;;;;;;;2.30;1.05;;;11.20;99.90;;;;;;5117733;28;20028;-64
2021/05/27 10:37:51;;;;;;;2.28;0.93;;;11.20;99.90;;;;;;5118139;28;20407;-62
2021/05/27 10:40:18;;;;;;;2.17;1.20;;;11.10;99.90;;;;;;5117559;28;20076;-63
2021/05/27 10:43:04;;;;;;;1.63;1.13;;;11.00;99.90;;;;;;5118135;28;20038;-63
2021/05/27 10:45:35;;;;;;;1.77;0.75;;;10.90;99.90;;;;;;5118218;28;20027;-63
2021/05/27 10:48:14;;;;;;;4.22;2.55;;;10.90;99.90;;;;;;5117258;28;20015;-63
2021/05/27 10:50:52;;;;;;;1.63;0.93;;;11.10;99.90;;;;;;5116715;28;20088;-63
2021/05/27 10:53:39;;;;;;;4.03;1.10;;;11.30;99.90;;;;;;5116926;28;20036;-64
2021/05/27 10:56:21;;;;;;;1.70;0.73;;;11.60;99.90;;;;;;5116749;28;20443;-64
2021/05/27 10:58:49;;;;;;;1.95;1.00;;;11.90;99.90;;;;;;5116788;28;20473;-64
2021/05/27 11:01:42;;;;;;;1.92;1.13;;;12.00;99.90;;;;;;5116539;28;20323;-64
2021/05/27 11:04:24;;;;;;;1.35;0.70;;;12.00;99.90;;;;;;5116618;28;20012;-64
2021/05/27 11:07:15;;;;;;;1.40;0.88;;;11.80;99.90;;;;;;5116687;28;20423;-64
2021/05/27 11:09:45;;;;;;;2.05;0.98;;;11.50;99.90;;;;;;5117542;28;20038;-64
2021/05/27 11:12:18;;;;;;;1.40;0.90;;;11.50;99.90;;;;;;5100363;28;20019;-63
2021/05/27 11:15:06;;;;;;;2.08;1.05;;;11.50;99.90;;;;;;5118128;28;20026;-64
2021/05/27 11:17:35;;;;;;;2.20;1.17;;;11.60;99.90;;;;;;5117388;28;20031;-63
2021/05/27 11:20:19;;;;;;;2.30;1.30;;;11.60;99.90;;;;;;5117398;28;20034;-63
2021/05/27 11:22:57;;;;;;;1.73;0.80;;;11.70;99.90;;;;;;5117278;28;20107;-63
2021/05/27 11:25:31;;;;;;;1.40;0.80;;;11.60;99.90;;;;;;5116757;28;20031;-63
2021/05/27 11:28:11;;;;;;;2.33;1.15;;;11.50;99.90;;;;;;5116566;28;20510;-63
2021/05/27 11:30:40;;;;;;;1.30;0.68;;;11.60;99.90;;;;;;5116383;28;20031;-63
2021/05/27 11:33:29;;;;;;;1.27;0.70;;;11.70;99.90;;;;;;5116402;28;20035;-63
2021/05/27 11:36:06;;;;;;;1.25;0.82;;;11.90;99.90;;;;;;5116138;28;20028;-63
2021/05/27 11:38:40;;;;;;;1.50;0.75;;;12.20;99.90;;;;;;5117032;28;20315;-63
2021/05/27 11:41:16;;;;;;;1.30;0.82;;;12.30;99.90;;;;;;5116332;28;20027;-64
2021/05/27 11:43:48;;;;;;;2.30;0.90;;;12.30;99.90;;;;;;5117185;28;20080;-63
2021/05/27 11:46:20;;;;;;;3.10;0.93;;;12.30;99.90;;;;;;5102174;28;20417;-63
2021/05/27 11:51:37;;;;;;;1.10;0.70;;;12.00;99.90;;;;;;5104016;28;20028;-63
2021/05/27 11:54:11;;;;;;;1.85;1.00;;;12.10;99.90;;;;;;5120713;28;20035;-63
2021/05/27 11:56:45;;;;;;;1.58;0.88;;;12.20;99.90;;;;;;5120592;28;20056;-63
2021/05/27 11:59:19;;;;;;;1.65;0.80;;;12.30;99.90;;;;;;5103399;28;20023;-65
2021/05/27 12:01:51;;;;;;;1.50;0.95;;;12.30;99.90;;;;;;5121465;28;20105;-64
2021/05/27 12:04:23;;;;;;;3.13;1.10;;;12.20;99.90;;;;;;5121204;28;20384;-64
2021/05/27 12:06:56;;;;;;;1.77;0.90;;;12.10;99.90;;;;;;5120058;28;20098;-64
2021/05/27 12:09:29;;;;;;;2.95;1.10;;;12.00;99.90;;;;;;5119984;28;20023;-65
2021/05/27 12:11:59;;;;;;;2.28;1.25;;;11.80;99.90;;;;;;5119683;28;20040;-64
2021/05/27 12:14:27;;;;;;;1.40;0.90;;;11.80;99.90;;;;;;5101484;28;20026;-64
2021/05/27 12:16:54;;;;;;;2.75;1.00;;;11.60;99.90;;;;;;5101911;28;20046;-65
2021/05/27 12:19:22;;;;;;;1.95;0.90;;;11.50;99.90;;;;;;5119296;28;20069;-64
2021/05/27 12:21:58;;;;;;;2.22;0.95;;;11.50;99.90;;;;;;5119279;28;20019;-65
2021/05/27 12:24:30;;;;;;;3.05;1.00;;;11.50;99.90;;;;;;5101344;28;20026;-64
2021/05/27 12:26:58;;;;;;;3.33;1.17;;;11.50;99.90;;;;;;5101334;28;20423;-64
2021/05/27 12:29:27;;;;;;;2.28;0.80;;;11.50;99.90;;;;;;5119871;28;20054;-64
2021/05/27 12:31:54;;;;;;;1.90;1.08;;;11.50;99.90;;;;;;5120084;28;20035;-64
2021/05/27 12:34:22;;;;;;;1.92;1.00;;;11.40;99.90;;;;;;5119758;28;20031;-64
2021/05/27 12:37:01;;;;;;;3.70;1.20;;;11.60;99.90;;;;;;5120256;28;20020;-64
2021/05/27 12:39:31;;;;;;;2.60;1.23;;;12.00;99.90;;;;;;5101882;28;20038;-64
2021/05/27 12:41:59;;;;;;;2.17;1.00;;;12.40;99.90;;;;;;5120244;28;20077;-65
2021/05/27 12:44:55;;;;;;;1.73;1.02;;;12.90;99.90;;;;;;5102023;28;20024;-65
2021/05/27 12:47:24;;;;;;;1.80;1.20;;;13.60;99.90;;;;;;5101050;28;20427;-65
2021/05/27 12:49:55;;;;;;;2.28;0.88;;;14.50;99.90;;;;;;5119298;28;20498;-65
2021/05/27 12:52:44;;;;;;;1.75;1.20;;;15.00;99.90;;;;;;5119055;28;20031;-66
2021/05/27 12:55:12;;;;;;;2.63;1.10;;;15.20;99.90;;;;;;5117300;28;20499;-65
2021/05/27 12:58:09;;;;;;;2.97;1.17;;;15.30;99.90;;;;;;5118771;28;20024;-65
2021/05/27 13:00:48;;;;;;;1.45;0.95;;;15.50;99.90;;;;;;5097646;28;20042;-65
2021/05/27 13:03:17;;;;;;;2.88;1.10;;;15.80;99.90;;;;;;5118689;28;20020;-64
2021/05/27 13:05:45;;;;;;;2.10;0.90;;;16.20;99.90;;;;;;5118495;28;20028;-64
2021/05/27 13:08:15;;;;;;;2.92;1.20;;;16.30;99.90;;;;;;5118941;28;20073;-64
2021/05/27 13:10:43;;;;;;;1.27;0.80;;;16.40;99.90;;;;;;5119326;28;20055;-64
2021/05/27 13:13:11;;;;;;;2.63;1.30;;;16.40;99.90;;;;;;5119476;28;20027;-64
2021/05/27 13:15:49;;;;;;;4.28;1.20;;;16.40;99.90;;;;;;5119303;28;20095;-66
2021/05/27 13:18:17;;;;;;;1.60;1.00;;;16.60;99.90;;;;;;5119163;28;20024;-65
2021/05/27 13:21:04;;;;;;;3.97;1.55;;;16.70;99.90;;;;;;5119567;28;20047;-64
2021/05/27 13:23:38;;;;;;;1.75;0.95;;;16.70;99.90;;;;;;5119382;28;20098;-63
2021/05/27 13:26:12;;;;;;;2.00;0.90;;;16.70;99.90;;;;;;5119668;28;20019;-65
2021/05/27 13:28:40;;;;;;;2.15;0.98;;;16.90;99.90;;;;;;5100301;28;20087;-65
2021/05/27 13:31:10;;;;;;;1.90;0.80;;;17.00;99.90;;;;;;5118666;28;20024;-65